Time;durP1;ratioP1;P1;durP2;ratioP2;P2;SDS_P1;SDS_P2;PMS_P1;PMS_P2;Temp;Humidity;BMP_temperature;BMP_pressure;BME280_temperature;BME280_humidity;BME280_pressure;Samples;Min_cycle;Max_cycle;Signal;HPM_P1;HPM_P2
2023/01/23 00:01:47;;;;;;;16.25;7.95;;;-0.10;99.90;;;;;;20920818;28;20078;-77
2023/01/23 00:11:48;;;;;;;18.33;8.32;;;0.00;99.90;;;;;;20921809;28;20154;-77
2023/01/23 00:21:49;;;;;;;18.98;8.68;;;0.00;99.90;;;;;;20920790;28;20047;-77
2023/01/23 00:31:50;;;;;;;15.73;8.10;;;-0.10;99.90;;;;;;20919648;28;20569;-77
2023/01/23 00:41:50;;;;;;;18.77;9.38;;;-0.10;99.90;;;;;;20921425;28;20063;-76
2023/01/23 00:51:53;;;;;;;16.73;8.73;;;-0.10;99.90;;;;;;20919572;28;20048;-76
2023/01/23 01:01:54;;;;;;;18.55;9.38;;;0.00;99.90;;;;;;20919413;28;20048;-76
2023/01/23 01:11:54;;;;;;;19.55;8.77;;;0.00;99.90;;;;;;20932768;28;20025;-76
2023/01/23 01:21:55;;;;;;;23.92;9.90;;;0.10;99.90;;;;;;20944521;28;20031;-77
2023/01/23 01:31:56;;;;;;;23.17;9.68;;;0.10;99.90;;;;;;20907899;28;20043;-77
2023/01/23 01:41:57;;;;;;;19.55;9.27;;;0.20;99.90;;;;;;20907005;28;20091;-76
2023/01/23 01:52:02;;;;;;;19.77;8.80;;;0.20;99.90;;;;;;20922991;28;20029;-77
2023/01/23 02:02:14;;;;;;;20.75;9.27;;;0.20;99.90;;;;;;20919714;28;20132;-77
2023/01/23 02:12:15;;;;;;;17.95;8.30;;;0.30;99.90;;;;;;20921806;28;20811;-76
2023/01/23 02:23:02;;;;;;;18.92;8.13;;;0.30;99.90;;;;;;20920935;28;20070;-76
2023/01/23 02:33:08;;;;;;;14.82;7.55;;;0.30;99.90;;;;;;20857375;28;21518;-76
2023/01/23 02:43:13;;;;;;;17.15;7.60;;;0.30;99.90;;;;;;20904796;28;20080;-77
2023/01/23 02:53:19;;;;;;;16.07;7.77;;;0.30;99.90;;;;;;20908647;28;20029;-76
2023/01/23 03:03:20;;;;;;;17.85;7.18;;;0.20;99.90;;;;;;20918053;28;20399;-77
2023/01/23 03:13:21;;;;;;;20.75;8.88;;;0.20;99.90;;;;;;20920026;28;20422;-77
2023/01/23 03:23:22;;;;;;;15.82;7.75;;;0.20;99.90;;;;;;20913215;28;20041;-76
2023/01/23 03:33:23;;;;;;;15.02;7.38;;;0.20;99.90;;;;;;20930338;28;20033;-77
2023/01/23 03:43:24;;;;;;;14.55;6.82;;;0.20;99.90;;;;;;20914683;28;20036;-77
2023/01/23 03:53:25;;;;;;;13.85;6.80;;;0.20;99.90;;;;;;20929519;28;20111;-76
2023/01/23 04:03:27;;;;;;;12.43;6.43;;;0.20;99.90;;;;;;20915080;28;20106;-78
2023/01/23 04:13:28;;;;;;;14.02;6.93;;;0.10;99.90;;;;;;20913557;28;20041;-77
2023/01/23 04:23:29;;;;;;;16.15;7.18;;;0.20;99.90;;;;;;20928459;28;20024;-75
2023/01/23 04:33:31;;;;;;;12.25;5.70;;;0.20;99.90;;;;;;20902962;28;20090;-77
2023/01/23 04:43:32;;;;;;;10.85;5.40;;;0.20;99.90;;;;;;20915555;28;20688;-76
2023/01/23 04:53:35;;;;;;;6.55;3.63;;;0.10;99.90;;;;;;20902601;28;20080;-77
2023/01/23 05:03:36;;;;;;;5.90;3.25;;;0.10;99.90;;;;;;20903899;28;20492;-76
2023/01/23 05:13:37;;;;;;;6.00;3.38;;;0.00;99.90;;;;;;20918543;28;20056;-76
2023/01/23 05:23:38;;;;;;;4.05;2.83;;;-0.10;99.90;;;;;;20899032;28;20036;-77
2023/01/23 05:33:39;;;;;;;5.68;3.10;;;-0.20;99.90;;;;;;20909577;28;20460;-77
2023/01/23 05:43:42;;;;;;;5.53;2.83;;;-0.10;99.90;;;;;;20929058;28;20029;-77
2023/01/23 05:54:02;;;;;;;5.32;3.33;;;0.00;99.90;;;;;;20916138;28;20033;-76
2023/01/23 06:04:04;;;;;;;8.45;4.03;;;0.00;99.90;;;;;;20903907;28;20024;-77
2023/01/23 06:14:13;;;;;;;8.07;3.88;;;0.10;99.90;;;;;;20912466;28;20050;-77
2023/01/23 06:24:13;;;;;;;12.48;4.55;;;0.00;99.90;;;;;;20935557;28;20036;-79
2023/01/23 06:34:14;;;;;;;11.38;5.65;;;-0.10;99.90;;;;;;20901347;28;20040;-77
2023/01/23 06:44:26;;;;;;;15.43;7.30;;;-0.20;99.90;;;;;;20919303;28;20115;-78
2023/01/23 06:54:28;;;;;;;25.50;10.40;;;-0.20;99.90;;;;;;20909516;28;20037;-78
2023/01/23 07:04:34;;;;;;;18.85;8.50;;;-0.20;99.90;;;;;;20889632;28;20033;-78
2023/01/23 07:14:35;;;;;;;20.05;9.65;;;-0.30;99.90;;;;;;20891227;28;20037;-77
2023/01/23 07:24:36;;;;;;;17.15;8.57;;;-0.30;99.90;;;;;;20897433;28;20132;-77
2023/01/23 07:34:37;;;;;;;18.08;7.82;;;-0.30;99.90;;;;;;20906591;28;20033;-77
2023/01/23 07:44:38;;;;;;;18.05;8.38;;;-0.20;99.90;;;;;;20906252;28;20065;-76
2023/01/23 07:54:39;;;;;;;17.20;8.15;;;-0.10;99.90;;;;;;20914350;28;20668;-77
2023/01/23 08:04:39;;;;;;;24.38;8.43;;;0.00;99.90;;;;;;20929800;28;20041;-77
2023/01/23 08:14:40;;;;;;;19.60;8.52;;;-0.10;99.90;;;;;;20922408;28;20491;-77
2023/01/23 08:24:41;;;;;;;16.08;8.27;;;-0.10;99.90;;;;;;20920721;28;20131;-77
2023/01/23 08:34:42;;;;;;;18.02;8.88;;;-0.10;99.90;;;;;;20922965;28;20495;-77
2023/01/23 08:44:42;;;;;;;19.10;8.57;;;-0.10;99.90;;;;;;20931004;28;20070;-77
2023/01/23 08:54:43;;;;;;;17.23;7.18;;;-0.10;99.90;;;;;;20908770;28;20039;-76
2023/01/23 09:04:45;;;;;;;14.07;6.70;;;0.20;99.90;;;;;;20920632;28;20493;-78
2023/01/23 09:14:46;;;;;;;16.80;6.13;;;0.30;99.90;;;;;;20923971;28;20042;-78
2023/01/23 09:24:47;;;;;;;12.23;5.38;;;0.40;99.90;;;;;;20926536;28;20040;-77
2023/01/23 09:34:48;;;;;;;13.80;6.20;;;0.60;99.90;;;;;;20933144;28;20058;-78
2023/01/23 09:45:10;;;;;;;15.07;6.25;;;0.70;99.90;;;;;;20935870;28;20020;-76
2023/01/23 09:55:17;;;;;;;13.20;6.00;;;0.70;99.90;;;;;;20917330;28;20114;-77
2023/01/23 10:05:24;;;;;;;10.02;5.50;;;0.80;99.90;;;;;;20920203;28;20060;-78
2023/01/23 10:15:40;;;;;;;12.52;5.60;;;0.80;99.90;;;;;;20923259;28;20090;-77
2023/01/23 10:25:41;;;;;;;14.48;6.00;;;0.80;99.90;;;;;;20912456;28;20033;-78
2023/01/23 10:35:49;;;;;;;11.27;5.38;;;0.90;99.90;;;;;;20917923;28;20028;-76
2023/01/23 10:45:50;;;;;;;12.75;6.43;;;0.90;99.90;;;;;;20911861;28;20036;-77
2023/01/23 10:55:56;;;;;;;12.18;6.18;;;0.90;99.90;;;;;;20912728;28;20075;-75
2023/01/23 11:06:02;;;;;;;14.15;6.07;;;0.90;99.90;;;;;;20913931;28;20400;-77
2023/01/23 11:16:03;;;;;;;14.73;6.88;;;1.00;99.90;;;;;;20925895;28;20036;-77
2023/01/23 11:26:05;;;;;;;13.20;6.38;;;1.00;99.90;;;;;;20917587;28;20033;-79
2023/01/23 11:36:12;;;;;;;13.70;6.80;;;1.00;99.90;;;;;;20934275;28;20037;-77
2023/01/23 11:46:22;;;;;;;13.20;6.22;;;1.00;99.90;;;;;;20936346;28;20047;-77
2023/01/23 11:56:52;;;;;;;15.40;6.80;;;1.10;99.90;;;;;;20935576;28;20677;-78
2023/01/23 12:07:14;;;;;;;13.75;6.95;;;1.10;99.90;;;;;;20867048;28;20053;-77
2023/01/23 12:17:32;;;;;;;49.28;19.45;;;1.20;99.90;;;;;;20924270;28;21359;-78
2023/01/23 12:27:40;;;;;;;13.55;7.25;;;1.40;99.90;;;;;;20922425;28;20043;-78
2023/01/23 12:38:01;;;;;;;10.45;6.65;;;1.40;99.90;;;;;;20922381;28;20076;-77
2023/01/23 12:48:26;;;;;;;16.80;8.02;;;1.50;99.90;;;;;;20916921;28;20025;-77
2023/01/23 12:58:31;;;;;;;14.88;6.90;;;1.60;99.90;;;;;;20939623;28;20028;-78
2023/01/23 13:09:01;;;;;;;16.35;7.70;;;1.60;99.90;;;;;;20942656;28;20033;-77
2023/01/23 13:29:49;;;;;;;19.88;8.57;;;1.60;99.90;;;;;;20941414;28;20063;-77
2023/01/23 13:40:28;;;;;;;19.70;9.20;;;1.70;99.90;;;;;;20921304;28;20073;-76
2023/01/23 13:50:35;;;;;;;72.47;27.38;;;1.70;99.90;;;;;;20704997;28;20054;-78
2023/01/23 14:00:38;;;;;;;24.00;10.70;;;1.80;99.90;;;;;;20698098;28;20049;-78
2023/01/23 14:10:47;;;;;;;25.88;11.20;;;1.80;99.90;;;;;;20697253;28;20069;-78
2023/01/23 14:20:50;;;;;;;29.45;10.68;;;1.70;99.90;;;;;;20887080;28;20053;-77
2023/01/23 14:30:59;;;;;;;24.58;10.73;;;1.60;99.90;;;;;;20930124;28;20100;-79
2023/01/23 14:41:06;;;;;;;31.33;12.18;;;1.60;99.90;;;;;;20905533;28;20075;-78
2023/01/23 14:51:21;;;;;;;22.20;10.77;;;1.70;99.90;;;;;;20931284;28;20043;-78
2023/01/23 15:01:23;;;;;;;31.00;12.23;;;1.60;99.90;;;;;;20928320;28;20029;-78
2023/01/23 15:11:26;;;;;;;27.75;11.55;;;1.60;99.90;;;;;;20918272;28;20040;-77
2023/01/23 15:21:41;;;;;;;27.33;11.60;;;1.60;99.90;;;;;;20946025;28;20025;-79
2023/01/23 15:31:45;;;;;;;27.67;12.25;;;1.60;99.90;;;;;;20955241;28;20047;-80
2023/01/23 15:41:52;;;;;;;27.92;10.27;;;1.60;99.90;;;;;;20943422;28;20017;-79
2023/01/23 15:51:57;;;;;;;26.70;11.43;;;1.70;99.90;;;;;;20980412;28;20056;-80
2023/01/23 16:01:58;;;;;;;24.23;10.77;;;1.70;99.90;;;;;;20974972;28;20024;-80
2023/01/23 16:12:00;;;;;;;24.42;10.13;;;1.80;99.90;;;;;;20972373;28;20021;-78
2023/01/23 16:22:00;;;;;;;24.70;11.10;;;1.90;99.90;;;;;;20967019;28;20072;-78
2023/01/23 16:32:02;;;;;;;22.50;10.68;;;1.90;99.90;;;;;;20954584;28;20029;-77
2023/01/23 16:42:03;;;;;;;21.40;9.15;;;2.00;99.90;;;;;;20947527;28;20447;-78
2023/01/23 16:52:05;;;;;;;15.93;7.97;;;2.20;99.90;;;;;;20977733;28;20071;-78
2023/01/23 17:02:20;;;;;;;13.13;6.80;;;2.40;99.90;;;;;;20953344;28;20103;-79
2023/01/23 17:12:26;;;;;;;18.58;9.15;;;2.40;99.90;;;;;;20964998;28;20025;-79
2023/01/23 17:22:31;;;;;;;21.85;10.05;;;2.40;99.90;;;;;;20957945;28;20044;-79
2023/01/23 17:32:35;;;;;;;17.83;8.40;;;2.40;99.90;;;;;;20945755;28;20059;-76
2023/01/23 17:42:36;;;;;;;18.83;8.15;;;2.40;99.90;;;;;;20942986;28;20020;-76
2023/01/23 17:52:36;;;;;;;19.70;10.05;;;2.40;99.90;;;;;;20929676;28;20028;-77
2023/01/23 18:02:38;;;;;;;17.35;9.07;;;2.40;99.90;;;;;;20917843;28;20416;-76
2023/01/23 18:13:17;;;;;;;19.23;8.85;;;2.40;99.90;;;;;;20920458;28;20055;-76
2023/01/23 18:23:18;;;;;;;23.02;8.52;;;2.40;99.90;;;;;;20931153;28;20129;-77
2023/01/23 18:33:28;;;;;;;19.95;8.52;;;2.40;99.90;;;;;;20933461;28;20047;-77
2023/01/23 18:43:39;;;;;;;19.45;8.75;;;2.30;99.90;;;;;;20942396;28;20040;-77
2023/01/23 18:54:09;;;;;;;18.80;9.10;;;2.30;99.90;;;;;;20944561;28;20537;-78
2023/01/23 19:04:14;;;;;;;28.40;12.23;;;2.30;99.90;;;;;;20898501;28;20106;-77
2023/01/23 19:14:53;;;;;;;25.02;12.48;;;2.20;99.90;;;;;;20922879;28;20468;-78
2023/01/23 19:24:54;;;;;;;24.10;11.05;;;2.20;99.90;;;;;;20921985;28;20119;-76
2023/01/23 19:34:55;;;;;;;20.52;10.30;;;2.00;99.90;;;;;;20925108;28;20503;-77
2023/01/23 19:44:55;;;;;;;23.55;10.10;;;2.00;99.90;;;;;;20933198;28;20055;-78
2023/01/23 19:54:56;;;;;;;24.65;11.25;;;2.00;99.90;;;;;;20936699;28;20036;-77
2023/01/23 20:04:57;;;;;;;25.45;10.63;;;2.00;99.90;;;;;;20947206;28;20119;-76
2023/01/23 20:14:58;;;;;;;23.08;10.65;;;2.00;99.90;;;;;;20924354;28;20035;-77
2023/01/23 20:24:59;;;;;;;26.08;12.13;;;2.10;99.90;;;;;;20935469;28;20107;-77
2023/01/23 20:35:00;;;;;;;24.63;11.43;;;2.10;99.90;;;;;;20956041;28;20112;-78
2023/01/23 20:45:00;;;;;;;26.92;11.40;;;2.00;99.90;;;;;;20959873;28;20105;-77
2023/01/23 20:55:01;;;;;;;25.20;11.20;;;1.90;99.90;;;;;;20949171;28;20026;-77
2023/01/23 21:05:02;;;;;;;26.25;12.10;;;1.90;99.90;;;;;;20950667;28;20102;-78
2023/01/23 21:15:03;;;;;;;24.35;10.85;;;2.00;99.90;;;;;;20917828;28;20029;-77
2023/01/23 21:25:05;;;;;;;24.75;10.88;;;2.00;99.90;;;;;;20948542;28;20107;-77
2023/01/23 21:35:06;;;;;;;25.13;10.40;;;2.10;99.90;;;;;;20950374;28;20025;-77
2023/01/23 21:45:07;;;;;;;19.83;10.07;;;2.20;99.90;;;;;;20927583;28;20044;-77
2023/01/23 21:55:08;;;;;;;17.52;8.52;;;2.30;99.90;;;;;;20935489;28;20036;-76
2023/01/23 22:05:09;;;;;;;22.00;8.73;;;2.40;99.90;;;;;;20941468;28;20037;-76
2023/01/23 22:15:10;;;;;;;17.65;8.85;;;2.50;99.90;;;;;;20951930;28;20024;-75
2023/01/23 22:25:11;;;;;;;17.77;8.38;;;2.60;99.90;;;;;;20949449;28;20033;-78
2023/01/23 22:35:12;;;;;;;17.55;8.55;;;2.70;99.90;;;;;;20928775;28;20372;-77
2023/01/23 22:45:13;;;;;;;18.45;8.50;;;2.70;99.90;;;;;;20952749;28;20108;-77
2023/01/23 22:55:14;;;;;;;22.60;9.27;;;2.60;99.90;;;;;;20946402;28;20036;-77
2023/01/23 23:05:15;;;;;;;20.75;9.57;;;2.70;99.90;;;;;;20941010;28;20040;-77
2023/01/23 23:15:16;;;;;;;19.95;9.25;;;2.60;99.90;;;;;;20907755;28;20036;-77
2023/01/23 23:25:17;;;;;;;16.65;8.98;;;2.60;99.90;;;;;;20909407;28;20033;-77
2023/01/23 23:35:17;;;;;;;18.85;8.07;;;2.60;99.90;;;;;;20920480;28;20068;-77
2023/01/23 23:45:18;;;;;;;15.85;7.68;;;2.60;99.90;;;;;;20920163;28;20495;-77
2023/01/23 23:55:19;;;;;;;18.27;8.70;;;2.50;99.90;;;;;;20929684;28;20029;-77
